Latest Weather Observations for Orbost

IDV60801

Issued at 3:05 pm EDT Monday 20 October 2014 (issued every 30 minutes, with the page automatically refreshed every 10 minutes)

About weather observations | Map of weather stations | Latest weather observations for VIC | Other Formats
Station Details ID: 084145 Name: ORBOST Lat: -37.69 Lon: 148.47 Height: 62.65 m
Data from the previous 72 hours. | See also: Recent months at Orbost
Date/Time
EDT
Temp
°C
App
Temp
°C
Dew
Point
Rel
Hum
%
Delta-T
°C
Wind Press
QNH
hPa
Press
MSL
hPa
Rain
since 9 am
mm
Dir
 
Spd
km/h
Gust
km/h
Spd
kts
Gust
kts
20/03:00pm 15.9 12.6 8.2 60 3.9 ESE 15 28 8 15 1030.4 1030.4 0.0
20/02:30pm 15.4 12.0 7.7 60 3.8 SE 15 26 8 14 1030.9 1030.9 0.0
20/02:00pm 15.7 12.9 8.4 62 3.7 SE 13 24 7 13 1031.2 1031.2 0.0
20/01:30pm 15.7 13.0 9.1 65 3.4 SE 13 26 7 14 1031.4 1031.4 0.0
20/01:00pm 15.7 13.3 10.2 70 2.9 SE 13 24 7 13 1031.7 1031.7 0.0
20/12:30pm 15.3 13.5 10.7 74 2.4 SSE 11 20 6 11 1032.0 1032.0 0.0
20/12:00pm 14.6 12.3 9.0 69 2.8 SE 11 24 6 13 1032.3 1032.3 0.0
20/11:30am 15.1 12.9 6.4 56 4.2 S 7 15 4 8 1032.4 1032.4 0.0
20/11:00am 14.4 11.8 7.9 65 3.2 S 11 17 6 9 1032.6 1032.6 0.0
20/10:30am 14.6 12.5 5.9 56 4.2 SSE 6 7 3 4 1032.6 1032.6 0.0
20/10:00am 14.7 12.8 6.5 58 3.9 W 6 7 3 4 1032.5 1032.5 0.0
20/09:30am 14.1 12.0 6.0 58 3.9 ESE 6 11 3 6 1032.3 1032.3 0.0
20/09:00am 13.4 11.6 5.6 59 3.6 SW 4 7 2 4 1031.9 1031.9 0.4
20/08:30am 13.3 11.8 6.9 65 3.1 WNW 4 7 2 4 1031.6 1031.6 0.4
20/08:00am 12.7 11.3 7.2 69 2.6 WSW 4 7 2 4 1031.1 1031.1 0.4
20/07:30am 12.2 10.8 7.1 71 2.5 SSW 4 7 2 4 1031.0 1031.0 0.4
20/07:00am 12.0 10.7 7.5 74 2.2 S 4 7 2 4 1030.8 1030.8 0.4
20/06:30am 11.7 9.5 7.8 77 1.9 SSW 9 13 5 7 1030.5 1030.5 0.4
20/06:00am 11.8 9.3 8.1 78 1.8 SSW 11 17 6 9 1030.3 1030.3 0.4
20/05:30am 11.9 9.0 8.2 78 1.8 SW 13 19 7 10 1029.9 1029.9 0.4
20/05:00am 12.0 9.4 7.9 76 2.0 SW 11 17 6 9 1029.6 1029.6 0.4
20/04:30am 12.0 9.9 8.1 77 1.9 WSW 9 15 5 8 1029.5 1029.5 0.4
20/04:00am 12.1 9.7 8.6 79 1.7 WSW 11 17 6 9 1029.4 1029.4 0.4
20/03:30am 12.1 8.8 8.2 77 1.9 SW 15 26 8 14 1029.3 1029.3 0.4
20/03:00am 12.2 9.1 8.7 79 1.7 WSW 15 22 8 12 1029.0 1029.0 0.4
20/02:30am 12.4 9.3 8.9 79 1.8 WSW 15 24 8 13 1028.9 1028.9 0.4
20/02:00am 12.4 9.3 8.9 79 1.7 SW 15 28 8 15 1028.7 1028.7 0.4
20/01:30am 12.5 8.8 9.5 82 1.5 SW 19 28 10 15 1028.5 1028.5 0.4
20/01:00am 12.4 10.3 11.1 92 0.7 WSW 13 24 7 13 1028.2 1028.2 0.4
20/12:30am 12.9 10.8 11.3 90 0.8 WSW 13 20 7 11 1027.8 1027.8 0.2
20/12:00am 12.9 10.1 11.5 91 0.7 WSW 17 30 9 16 1027.5 1027.5 0.0
 
Date/Time
EDT
Temp
°C
App
Temp
°C
Dew
Point
Rel
Hum
%
Delta-T
°C
Wind Press
QNH
hPa
Press
MSL
hPa
Rain
since 9 am
mm
Dir
 
Spd
km/h
Gust
km/h
Spd
kts
Gust
kts
19/11:30pm 14.4 12.1 10.6 78 2.0 WSW 13 20 7 11 1027.0 1026.9 0.0
19/11:00pm 14.5 12.0 11.1 80 1.8 W 15 24 8 13 1026.5 1026.4 0.0
19/10:30pm 14.5 13.3 11.5 82 1.6 WSW 9 17 5 9 1026.3 1026.2 0.0
19/10:00pm 14.6 12.2 11.4 81 1.7 WSW 15 22 8 12 1025.8 1025.7 0.0
19/09:30pm 14.7 13.5 11.7 82 1.6 WSW 9 17 5 9 1025.3 1025.2 0.0
19/09:00pm 14.9 14.1 11.7 81 1.7 WSW 7 13 4 7 1024.5 1024.4 0.0
19/08:30pm 15.2 12.9 11.6 79 1.9 WSW 15 24 8 13 1023.3 1023.3 0.0
19/08:00pm 16.8 12.8 11.7 72 2.8 SSW 24 41 13 22 1021.7 1021.7 0.0
19/07:51pm 19.1 14.1 10.9 59 4.5 SW 28 41 15 22 1020.9 1020.9 0.0
19/07:30pm 22.3 20.6 8.4 41 7.4 NNW 7 11 4 6 1019.5 1019.5 0.0
19/07:00pm 22.6 20.2 8.7 41 7.4 N 11 17 6 9 1019.2 1019.2 0.0
19/06:30pm 23.9 23.1 8.3 37 8.3 W 2 4 1 2 1019.0 1019.0 0.0
19/06:00pm 24.7 23.1 7.8 34 9.0 NW 6 9 3 5 1018.5 1018.5 0.0
19/05:30pm 25.0 22.5 8.1 34 9.0 NW 11 17 6 9 1018.3 1018.3 0.0
19/05:00pm 25.8 22.9 8.3 33 9.4 NNW 13 24 7 13 1018.0 1018.0 0.0
19/04:30pm 28.1 26.4 11.2 35 9.7 WNW 11 19 6 10 1017.9 1017.9 0.0
19/04:00pm 28.5 26.5 10.2 32 10.3 WNW 11 15 6 8 1017.9 1017.9 0.0
19/03:30pm 28.9 27.3 11.5 34 10.1 WNW 11 19 6 10 1018.0 1018.0 0.0
19/03:00pm 29.1 27.4 9.8 30 10.8 NNW 9 15 5 8 1018.3 1018.3 0.0
19/02:30pm 29.2 26.4 9.9 30 10.9 NW 15 22 8 12 1018.6 1018.6 0.0
19/02:00pm 28.9 26.6 10.6 32 10.4 NW 13 26 7 14 1019.2 1019.2 0.0
19/01:30pm 28.6 27.0 11.6 34 9.8 NW 11 19 6 10 1019.5 1019.5 0.0
19/01:00pm 26.9 24.6 10.6 36 9.2 NNW 13 22 7 12 1019.7 1019.7 0.0
19/12:30pm 27.6 24.6 10.8 35 9.5 NNW 17 26 9 14 1020.2 1020.2 0.0
19/12:00pm 26.8 24.9 10.5 36 9.1 NW 11 24 6 13 1020.6 1020.6 0.0
19/11:30am 25.7 24.5 10.3 38 8.6 NW 7 11 4 6 1020.8 1020.8 0.0
19/11:00am 24.8 22.1 9.1 37 8.5 NNW 13 17 7 9 1020.9 1020.9 0.0
19/10:30am 23.3 22.1 10.4 44 7.1 NNW 7 13 4 7 1021.3 1021.3 0.0
19/10:00am 22.6 22.2 11.0 48 6.4 NW 4 9 2 5 1021.4 1021.4 0.0
19/09:30am 21.1 20.8 11.4 54 5.4 W 4 6 2 3 1021.5 1021.5 0.0
19/09:00am 19.8 20.0 11.8 60 4.4 N 2 6 1 3 1021.4 1021.4 0.0
19/08:30am 16.1 16.8 12.3 78 2.1 CALM 0 0 0 0 1021.4 1021.4 0.0
19/08:00am 14.5 14.3 10.3 76 2.2 SSW 2 4 1 2 1021.2 1021.2 0.0
19/07:30am 14.0 13.0 10.2 78 2.0 N 6 9 3 5 1020.9 1020.9 0.0
19/07:00am 12.5 11.7 9.5 82 1.5 NNW 4 6 2 3 1021.1 1021.1 0.0
19/06:30am 12.6 12.1 9.2 80 1.7 WNW 2 4 1 2 1021.1 1021.1 0.0
19/06:00am 12.1 11.5 8.8 80 1.6 W 2 4 1 2 1021.0 1021.0 0.0
19/05:30am 14.4 13.0 8.8 69 2.8 NE 6 9 3 5 1020.9 1020.9 0.0
19/05:00am 14.0 12.6 9.4 74 2.3 NNE 7 9 4 5 1021.2 1021.2 0.0
19/04:30am 13.2 13.1 9.5 78 1.9 CALM 0 4 0 2 1021.5 1021.5 0.0
19/04:00am 13.2 13.2 9.8 80 1.7 CALM 0 0 0 0 1021.8 1021.8 0.0
19/03:30am 12.7 11.4 10.1 84 1.3 N 7 9 4 5 1021.9 1021.9 0.0
19/03:00am 12.0 11.0 9.0 82 1.5 N 4 6 2 3 1022.5 1022.5 0.0
19/02:30am 12.8 12.7 9.4 80 1.7 CALM 0 0 0 0 1022.6 1022.6 0.0
19/02:00am 12.2 12.1 9.6 84 1.3 CALM 0 0 0 0 1022.8 1022.8 0.0
19/01:30am 12.8 12.8 9.8 82 1.5 CALM 0 0 0 0 1023.2 1023.2 0.0
19/01:00am 11.6 11.3 8.8 83 1.4 CALM 0 0 0 0 1023.4 1023.4 0.0
19/12:30am 12.3 11.3 8.8 79 1.8 NNE 4 7 2 4 1024.0 1023.9 0.0
19/12:00am 12.9 11.3 8.0 72 2.4 N 6 7 3 4 1024.1 1024.0 0.0
 
Date/Time
EDT
Temp
°C
App
Temp
°C
Dew
Point
Rel
Hum
%
Delta-T
°C
Wind Press
QNH
hPa
Press
MSL
hPa
Rain
since 9 am
mm
Dir
 
Spd
km/h
Gust
km/h
Spd
kts
Gust
kts
18/11:30pm 13.0 11.4 7.9 71 2.5 N 6 7 3 4 1024.3 1024.2 0.0
18/11:00pm 13.8 12.1 7.6 66 3.0 N 6 7 3 4 1024.5 1024.4 0.0
18/10:30pm 13.7 13.3 8.1 69 2.8 CALM 0 0 0 0 1024.5 1024.4 0.0
18/10:00pm 13.9 13.4 7.9 67 3.0 CALM 0 0 0 0 1024.4 1024.3 0.0
18/09:30pm 14.6 13.6 7.4 62 3.6 W 2 4 1 2 1024.3 1024.2 0.0
18/09:00pm 16.2 14.0 6.1 51 4.9 E 7 13 4 7 1023.1 1023.1 0.0
18/08:30pm 15.8 12.9 6.5 54 4.5 ENE 11 19 6 10 1023.1 1023.1 0.0
18/08:00pm 15.0 13.5 8.5 65 3.3 ENE 6 9 3 5 1024.2 1024.1 0.0
18/07:30pm 16.2 15.5 8.4 60 4.0 ESE 2 4 1 2 1024.4 1024.3 0.0
18/07:00pm 17.3 15.9 8.7 57 4.4 ESE 6 9 3 5 1024.0 1023.9 0.0
18/06:30pm 17.7 16.2 8.3 54 4.8 ESE 6 11 3 6 1023.6 1023.6 0.0
18/06:00pm 18.9 17.2 8.3 50 5.5 SSE 7 13 4 7 1023.4 1023.4 0.0
18/05:30pm 19.3 17.7 8.0 48 5.8 SSE 6 7 3 4 1023.3 1023.3 0.0
18/05:00pm 20.0 18.4 8.7 48 5.9 SSE 7 13 4 7 1023.2 1023.2 0.0
18/04:30pm 19.9 18.4 9.2 50 5.7 SSE 7 11 4 6 1023.4 1023.4 0.0
18/04:00pm 19.6 18.0 8.9 50 5.6 S 7 13 4 7 1023.7 1023.7 0.0
18/03:30pm 19.9 18.6 11.4 58 4.7 SSE 9 13 5 7 1023.9 1023.8 0.0
18/03:00pm 20.3 19.4 12.5 61 4.4 S 9 15 5 8 1024.5 1024.4 0.0
18/02:30pm 19.9 18.6 11.1 57 4.8 S 9 17 5 9 1024.9 1024.8 0.0
18/02:00pm 19.8 18.9 12.6 63 4.0 SSE 9 15 5 8 1025.2 1025.1 0.0
18/01:30pm 19.5 18.7 12.8 65 3.8 S 9 17 5 9 1025.5 1025.4 0.0
18/01:00pm 20.6 19.3 9.2 48 6.0 WNW 6 9 3 5 1025.8 1025.7 0.0
18/12:30pm 20.4 20.1 11.6 57 4.9 SSW 4 9 2 5 1026.2 1026.1 0.0
18/12:00pm 19.4 19.4 11.2 59 4.5 SSW 2 7 1 4 1026.5 1026.4 0.0
18/11:30am 18.8 19.1 13.4 71 3.1 S 4 7 2 4 1026.7 1026.6 0.0
18/11:00am 17.6 17.5 10.9 65 3.6 S 2 6 1 3 1027.0 1026.9 0.0
18/10:30am 16.9 16.6 11.6 71 2.9 SSW 4 6 2 3 1027.3 1027.3 0.0
18/10:00am 15.9 15.4 10.9 72 2.7 W 4 7 2 4 1027.6 1027.6 0.0
18/09:30am 14.3 14.2 10.9 80 1.8 S 2 4 1 2 1027.7 1027.7 0.0
18/09:00am 13.0 12.8 10.4 84 1.3 SW 2 6 1 3 1027.8 1027.8 0.6
18/08:30am 11.7 11.7 9.9 89 0.9 CALM 0 0 0 0 1028.1 1028.1 0.6
18/08:00am 9.7 9.5 8.9 95 0.4 CALM 0 0 0 0 1027.8 1027.8 0.6
18/07:30am 7.9 7.3 7.3 96 0.3 CALM 0 2 0 1 1027.7 1027.7 0.6
18/07:00am 7.6 6.2 7.2 97 0.2 N 4 6 2 3 1027.1 1027.1 0.6
18/06:30am 6.7 5.5 6.3 97 0.2 NNW 2 2 1 1 1026.7 1026.6 0.6
18/06:00am 6.4 5.5 6.0 97 0.2 CALM 0 2 0 1 1026.5 1026.4 0.6
18/05:30am 6.7 5.9 6.3 97 0.2 CALM 0 0 0 0 1026.3 1026.2 0.6
18/05:00am 6.5 5.6 6.1 97 0.2 CALM 0 0 0 0 1026.3 1026.2 0.6
18/04:30am 6.7 5.9 6.3 97 0.2 CALM 0 0 0 0 1026.3 1026.2 0.6
18/04:00am 6.7 5.9 6.3 97 0.2 CALM 0 0 0 0 1026.5 1026.4 0.6
18/03:30am 6.6 5.7 6.0 96 0.3 CALM 0 0 0 0 1026.6 1026.5 0.6
18/03:00am 6.4 5.4 5.7 95 0.3 CALM 0 0 0 0 1026.7 1026.6 0.6
18/02:30am 7.2 6.0 6.6 96 0.3 ENE 2 4 1 2 1026.8 1026.7 0.6
18/02:00am 6.9 5.6 6.2 95 0.3 ENE 2 4 1 2 1027.2 1027.2 0.6
18/01:30am 7.5 6.7 6.6 94 0.4 CALM 0 2 0 1 1027.5 1027.5 0.6
18/01:00am 8.1 7.5 7.2 94 0.4 CALM 0 0 0 0 1027.6 1027.6 0.6
18/12:30am 8.0 7.3 6.9 93 0.5 CALM 0 0 0 0 1027.5 1027.5 0.6
18/12:00am 7.9 7.1 6.5 91 0.6 CALM 0 0 0 0 1027.7 1027.7 0.6
 
Date/Time
EDT
Temp
°C
App
Temp
°C
Dew
Point
Rel
Hum
%
Delta-T
°C
Wind Press
QNH
hPa
Press
MSL
hPa
Rain
since 9 am
mm
Dir
 
Spd
km/h
Gust
km/h
Spd
kts
Gust
kts
17/11:30pm 8.8 7.7 6.9 88 0.9 E 2 4 1 2 1027.7 1027.7 0.6
17/11:00pm 9.1 8.0 6.7 85 1.1 ESE 2 6 1 3 1027.8 1027.8 0.6
17/10:30pm 9.9 8.1 7.2 83 1.3 ESE 6 11 3 6 1027.7 1027.7 0.6
17/10:00pm 9.9 8.1 7.0 82 1.4 E 6 9 3 5 1027.6 1027.6 0.6
17/09:30pm 10.2 8.3 6.7 79 1.6 ESE 6 9 3 5 1027.7 1027.7 0.6
17/09:00pm 10.9 8.8 6.6 75 2.0 ESE 7 13 4 7 1027.8 1027.8 0.6
17/08:30pm 11.2 9.1 6.7 74 2.1 E 7 15 4 8 1027.7 1027.7 0.6
17/08:00pm 11.6 9.6 6.9 73 2.2 ESE 7 17 4 9 1027.5 1027.5 0.6
17/07:30pm 11.9 10.2 7.4 74 2.2 ESE 6 9 3 5 1027.2 1027.2 0.6
17/07:00pm 13.1 10.4 7.3 68 2.8 ESE 11 22 6 12 1026.8 1026.7 0.6
17/06:30pm 13.9 11.8 8.1 68 2.9 ESE 9 17 5 9 1026.5 1026.4 0.6
17/06:00pm 14.4 12.2 7.9 65 3.2 ESE 9 19 5 10 1026.4 1026.3 0.6
17/05:30pm 14.7 12.2 8.2 65 3.3 SE 11 19 6 10 1026.4 1026.3 0.6
17/05:00pm 15.0 12.5 8.3 64 3.4 SE 11 20 6 11 1026.2 1026.1 0.6
17/04:30pm 15.2 12.4 8.7 65 3.3 SE 13 20 7 11 1026.4 1026.3 0.6
17/04:00pm 15.4 13.0 8.6 64 3.4 SE 11 22 6 12 1026.3 1026.2 0.6
17/03:30pm 15.0 13.1 9.1 68 3.0 SE 9 22 5 12 1026.4 1026.3 0.6

Other Formats:

Comma delimited format used in spreadsheet applications
http://www.bom.gov.au/fwo/IDV60801/IDV60801.95918.axf

JavaScript Object Notation format (JSON) in row-major order
http://www.bom.gov.au/fwo/IDV60801/IDV60801.95918.json